createdAt,value
2018-09-03T00:00:50.221Z,101288.00
2018-09-03T00:05:54.070Z,101275.00
2018-09-03T00:10:58.104Z,101263.00
2018-09-03T00:16:02.161Z,101253.00
2018-09-03T00:21:05.929Z,101244.00
2018-09-03T00:26:10.021Z,101243.00
2018-09-03T00:31:19.269Z,101232.00
2018-09-03T00:36:28.437Z,101224.00
2018-09-03T00:41:37.613Z,101219.00
2018-09-03T00:46:46.717Z,101223.00
2018-09-03T00:51:50.729Z,101208.00
2018-09-03T00:56:54.809Z,101213.00
2018-09-03T01:01:58.821Z,101211.00
2018-09-03T01:07:02.607Z,101205.00
2018-09-03T01:12:06.680Z,101203.00
2018-09-03T01:17:10.469Z,101208.00
2018-09-03T01:22:14.498Z,101201.00
2018-09-03T01:27:18.581Z,101202.00
2018-09-03T01:32:22.631Z,101206.00
2018-09-03T01:37:26.637Z,101215.00
2018-09-03T01:42:30.647Z,101219.00
2018-09-03T01:47:34.721Z,101241.00
2018-09-03T01:52:38.744Z,101257.00
2018-09-03T01:57:43.577Z,101271.00
2018-09-03T02:02:47.661Z,101272.00
2018-09-03T02:07:51.745Z,101259.00
2018-09-03T02:12:55.595Z,101242.00
2018-09-03T02:17:59.714Z,101231.00
2018-09-03T02:23:03.681Z,101238.00
2018-09-03T02:28:07.749Z,101242.00
2018-09-03T02:33:11.573Z,101239.00
2018-09-03T02:38:15.409Z,101233.00
2018-09-03T02:43:19.541Z,101219.00
2018-09-03T02:48:23.622Z,101195.00
2018-09-03T02:53:27.774Z,101214.00
2018-09-03T02:58:31.974Z,101215.00
2018-09-03T03:03:35.799Z,101207.00
2018-09-03T03:08:40.256Z,101206.00
2018-09-03T03:13:44.363Z,101200.00
2018-09-03T03:18:48.434Z,101193.00
2018-09-03T03:23:52.450Z,101192.00
2018-09-03T03:28:56.224Z,101194.00
2018-09-03T03:34:00.361Z,101180.00
2018-09-03T03:39:06.217Z,101173.00
2018-09-03T03:44:10.241Z,101161.00
2018-09-03T03:49:14.242Z,101155.00
2018-09-03T03:54:18.244Z,101148.00
2018-09-03T03:59:22.334Z,101157.00
2018-09-03T04:04:26.361Z,101156.00
2018-09-03T04:09:30.463Z,101152.00
2018-09-03T04:14:34.482Z,101145.00
2018-09-03T04:19:38.537Z,101137.00
2018-09-03T04:24:42.350Z,101136.00
2018-09-03T04:29:46.414Z,101136.00
2018-09-03T04:34:50.213Z,101141.00
2018-09-03T04:39:54.265Z,101140.00
2018-09-03T04:44:58.294Z,101133.00
2018-09-03T04:50:02.077Z,101130.00
2018-09-03T04:55:05.900Z,101137.00
2018-09-03T05:00:09.729Z,101130.00
2018-09-03T05:05:13.843Z,101124.00
2018-09-03T05:10:17.553Z,101126.00
2018-09-03T05:15:21.353Z,101136.00
2018-09-03T05:20:25.152Z,101142.00
2018-09-03T05:25:29.228Z,101143.00
2018-09-03T05:30:33.029Z,101135.00
2018-09-03T05:35:37.098Z,101129.00
2018-09-03T05:40:41.389Z,101120.00
2018-09-03T05:45:46.089Z,101115.00
2018-09-03T05:50:50.117Z,101131.00
2018-09-03T05:55:53.977Z,101129.00
2018-09-03T06:00:58.103Z,101131.00
2018-09-03T06:06:02.498Z,101125.00
2018-09-03T06:11:07.614Z,101128.00
2018-09-03T06:16:11.409Z,101118.00
2018-09-03T06:21:15.604Z,101114.00
2018-09-03T06:26:19.413Z,101126.00
2018-09-03T06:31:23.503Z,101116.00
2018-09-03T06:36:27.274Z,101121.00
2018-09-03T06:41:32.069Z,101126.00
2018-09-03T06:46:35.873Z,101131.00
2018-09-03T06:51:39.915Z,101125.00
2018-09-03T06:56:43.937Z,101117.00
2018-09-03T07:01:47.751Z,101116.00
2018-09-03T07:06:51.797Z,101115.00
2018-09-03T07:11:55.525Z,101116.00
2018-09-03T07:16:59.546Z,101122.00
2018-09-03T07:22:03.646Z,101124.00
2018-09-03T07:27:07.450Z,101113.00
2018-09-03T07:32:11.503Z,101116.00
2018-09-03T07:37:15.550Z,101109.00
2018-09-03T07:42:19.338Z,101117.00
2018-09-03T07:47:23.486Z,101115.00
2018-09-03T07:52:27.533Z,101110.00
2018-09-03T07:57:31.574Z,101093.00
2018-09-03T08:02:35.369Z,101090.00
2018-09-03T08:07:39.442Z,101100.00
2018-09-03T08:12:43.454Z,101108.00
2018-09-03T08:17:47.508Z,101103.00
2018-09-03T08:22:51.549Z,101100.00
2018-09-03T08:27:55.373Z,101101.00
2018-09-03T08:32:59.169Z,101104.00
2018-09-03T08:38:03.225Z,101105.00
2018-09-03T08:43:07.056Z,101110.00
2018-09-03T08:48:11.119Z,101108.00
2018-09-03T08:53:15.175Z,101103.00
2018-09-03T08:58:19.221Z,101096.00
2018-09-03T09:03:28.317Z,101106.00
2018-09-03T09:08:32.385Z,101109.00
2018-09-03T09:13:36.426Z,101111.00
2018-09-03T09:18:40.445Z,101102.00
2018-09-03T09:23:44.530Z,101086.00
2018-09-03T09:28:48.304Z,101089.00
2018-09-03T09:33:53.278Z,101096.00
2018-09-03T09:38:57.060Z,101086.00
2018-09-03T09:44:01.705Z,101081.00
2018-09-03T09:49:05.488Z,101080.00
2018-09-03T09:54:09.654Z,101081.00
2018-09-03T09:59:13.697Z,101074.00
2018-09-03T10:04:17.762Z,101078.00
2018-09-03T10:09:21.766Z,101066.00
2018-09-03T10:14:25.604Z,101063.00
2018-09-03T10:19:29.626Z,101061.00
2018-09-03T10:24:33.436Z,101048.00
2018-09-03T10:29:37.447Z,101052.00
2018-09-03T10:34:41.616Z,101039.00
2018-09-03T10:39:45.645Z,101052.00
2018-09-03T10:44:49.427Z,101040.00
2018-09-03T10:49:53.257Z,101036.00
2018-09-03T10:54:57.374Z,101033.00
2018-09-03T11:00:01.471Z,101027.00
2018-09-03T11:05:05.524Z,101029.00
2018-09-03T11:10:09.702Z,101021.00
2018-09-03T11:15:20.646Z,101009.00
2018-09-03T11:20:30.605Z,101001.00
2018-09-03T11:25:35.161Z,100993.00
2018-09-03T11:30:39.310Z,100988.00
2018-09-03T11:35:43.365Z,100975.00
2018-09-03T11:40:47.423Z,100978.00
2018-09-03T11:45:51.453Z,100978.00
2018-09-03T11:50:55.246Z,100983.00
2018-09-03T11:55:59.306Z,100983.00
2018-09-03T12:01:03.349Z,100983.00
2018-09-03T12:06:07.125Z,100981.00
2018-09-03T12:11:10.902Z,100984.00
2018-09-03T12:16:17.686Z,100985.00
2018-09-03T12:21:21.706Z,100984.00
2018-09-03T12:26:25.750Z,100980.00
2018-09-03T12:31:29.760Z,100983.00
2018-09-03T12:36:33.773Z,100982.00
2018-09-03T12:41:37.569Z,100980.00
2018-09-03T12:46:41.580Z,100971.00
2018-09-03T12:51:45.385Z,100974.00
2018-09-03T12:56:49.676Z,100978.00
2018-09-03T13:01:53.715Z,100970.00
2018-09-03T13:06:57.761Z,100973.00
2018-09-03T13:12:01.878Z,100970.00
2018-09-03T13:17:05.693Z,100971.00
2018-09-03T13:22:10.120Z,100969.00
2018-09-03T13:27:14.408Z,100973.00
2018-09-03T13:32:18.425Z,100971.00
2018-09-03T13:37:22.264Z,100966.00
2018-09-03T13:42:26.380Z,100960.00
2018-09-03T13:47:30.370Z,100962.00
2018-09-03T13:52:34.465Z,100960.00
2018-09-03T13:57:38.797Z,100959.00
2018-09-03T14:02:42.650Z,100956.00
2018-09-03T14:07:46.706Z,100954.00
2018-09-03T14:12:50.747Z,100956.00
2018-09-03T14:17:54.765Z,100960.00
2018-09-03T14:22:59.000Z,100952.00
2018-09-03T14:28:03.032Z,100955.00
2018-09-03T14:33:08.049Z,100948.00
2018-09-03T14:38:12.104Z,100954.00
2018-09-03T14:43:16.197Z,100950.00
2018-09-03T14:48:20.230Z,100940.00
2018-09-03T14:53:24.383Z,100935.00
2018-09-03T14:58:28.412Z,100937.00
2018-09-03T15:03:32.931Z,100937.00
2018-09-03T15:08:37.093Z,100933.00
2018-09-03T15:13:40.916Z,100935.00
2018-09-03T15:18:44.824Z,100938.00
2018-09-03T15:23:49.135Z,100943.00
2018-09-03T15:28:53.292Z,100943.00
2018-09-03T15:33:57.412Z,100945.00
2018-09-03T15:39:01.481Z,100940.00
2018-09-03T15:44:05.730Z,100937.00
2018-09-03T15:49:09.951Z,100937.00
2018-09-03T15:54:14.039Z,100939.00
2018-09-03T15:59:17.994Z,100938.00
2018-09-03T16:04:22.661Z,100936.00
2018-09-03T16:09:26.686Z,100934.00
2018-09-03T16:14:37.450Z,100932.00
2018-09-03T16:19:41.655Z,100936.00
2018-09-03T16:24:45.441Z,100932.00
2018-09-03T16:29:49.546Z,100933.00
2018-09-03T16:34:53.625Z,100920.00
2018-09-03T16:39:57.673Z,100922.00
2018-09-03T16:45:01.570Z,100920.00
2018-09-03T16:50:05.670Z,100917.00
2018-09-03T16:55:09.788Z,100921.00
2018-09-03T17:00:13.952Z,100922.00
2018-09-03T17:05:17.737Z,100920.00
2018-09-03T17:10:21.789Z,100912.00
2018-09-03T17:15:25.583Z,100910.00
2018-09-03T17:20:29.798Z,100911.00
2018-09-03T17:25:33.737Z,100911.00
2018-09-03T17:30:37.935Z,100914.00
2018-09-03T17:35:41.950Z,100915.00
2018-09-03T17:40:46.109Z,100919.00
2018-09-03T17:45:49.965Z,100919.00
2018-09-03T17:50:54.034Z,100919.00
2018-09-03T17:55:57.929Z,100921.00
2018-09-03T18:01:02.236Z,100922.00
2018-09-03T18:06:06.889Z,100923.00
2018-09-03T18:11:10.676Z,100930.00
2018-09-03T18:16:14.764Z,100927.00
2018-09-03T18:21:18.767Z,100930.00
2018-09-03T18:26:22.893Z,100928.00
2018-09-03T18:31:26.718Z,100931.00
2018-09-03T18:36:30.895Z,100929.00
2018-09-03T18:41:34.669Z,100936.00
2018-09-03T18:46:38.711Z,100940.00
2018-09-03T18:51:42.746Z,100939.00
2018-09-03T18:56:46.825Z,100938.00
2018-09-03T19:01:50.773Z,100937.00
2018-09-03T19:06:54.871Z,100931.00
2018-09-03T19:11:58.710Z,100918.00
2018-09-03T19:17:02.614Z,100919.00
2018-09-03T19:22:06.695Z,100906.00
2018-09-03T19:27:11.001Z,100896.00
2018-09-03T19:32:14.885Z,100900.00
2018-09-03T19:37:18.760Z,100894.00
2018-09-03T19:42:22.810Z,100882.00
2018-09-03T19:47:26.849Z,100882.00
2018-09-03T19:52:30.961Z,100882.00
2018-09-03T19:57:35.106Z,100882.00
2018-09-03T20:02:38.993Z,100882.00
2018-09-03T20:07:42.789Z,100877.00
2018-09-03T20:12:46.968Z,100872.00
2018-09-03T20:17:50.793Z,100872.00
2018-09-03T20:22:54.948Z,100873.00
2018-09-03T20:27:58.965Z,100868.00
2018-09-03T20:33:02.809Z,100868.00
2018-09-03T20:38:07.061Z,100869.00
2018-09-03T20:43:11.113Z,100869.00
2018-09-03T20:48:15.254Z,100866.00
2018-09-03T20:53:19.305Z,100866.00
2018-09-03T20:58:23.430Z,100863.00
2018-09-03T21:03:27.269Z,100857.00
2018-09-03T21:08:31.370Z,100861.00
2018-09-03T21:13:35.381Z,100856.00
2018-09-03T21:18:39.614Z,100859.00
2018-09-03T21:23:43.753Z,100856.00
2018-09-03T21:28:47.526Z,100857.00
2018-09-03T21:33:51.346Z,100859.00
2018-09-03T21:38:55.412Z,100855.00
2018-09-03T21:43:59.183Z,100854.00
2018-09-03T21:49:03.022Z,100850.00
2018-09-03T21:54:06.973Z,100856.00
2018-09-03T21:59:11.076Z,100851.00
2018-09-03T22:04:14.930Z,100853.00
2018-09-03T22:09:19.063Z,100846.00
2018-09-03T22:14:22.915Z,100837.00
2018-09-03T22:19:26.962Z,100843.00
2018-09-03T22:24:31.163Z,100839.00
2018-09-03T22:29:34.965Z,100845.00
2018-09-03T22:34:38.839Z,100850.00
2018-09-03T22:39:42.903Z,100849.00
2018-09-03T22:44:47.026Z,100851.00
2018-09-03T22:49:50.890Z,100848.00
2018-09-03T22:54:55.330Z,100846.00
2018-09-03T22:59:59.138Z,100845.00
2018-09-03T23:05:03.057Z,100840.00
2018-09-03T23:10:07.478Z,100840.00
2018-09-03T23:15:11.498Z,100842.00
2018-09-03T23:20:15.298Z,100843.00
2018-09-03T23:25:19.385Z,100844.00
2018-09-03T23:30:23.897Z,100844.00
2018-09-03T23:35:27.697Z,100837.00
2018-09-03T23:40:32.737Z,100836.00
2018-09-03T23:45:36.819Z,100833.00
2018-09-03T23:50:40.896Z,100829.00
2018-09-03T23:55:44.937Z,100821.00
